sensor_id;sensor_type;location;lat;lon;timestamp;P1;durP1;ratioP1;P2;durP2;ratioP2
25125;SDS011;13106;50.808;5.670;2022-11-18T00:01:50;6.80;;;2.47;;
25125;SDS011;13106;50.808;5.670;2022-11-18T00:04:16;5.57;;;2.50;;
25125;SDS011;13106;50.808;5.670;2022-11-18T00:06:42;9.38;;;2.88;;
25125;SDS011;13106;50.808;5.670;2022-11-18T00:09:08;11.13;;;2.33;;
25125;SDS011;13106;50.808;5.670;2022-11-18T00:11:34;7.05;;;2.22;;
25125;SDS011;13106;50.808;5.670;2022-11-18T00:14:20;7.70;;;2.13;;
25125;SDS011;13106;50.808;5.670;2022-11-18T00:17:02;9.13;;;2.42;;
25125;SDS011;13106;50.808;5.670;2022-11-18T00:19:33;5.75;;;2.10;;
25125;SDS011;13106;50.808;5.670;2022-11-18T00:21:59;5.53;;;2.50;;
25125;SDS011;13106;50.808;5.670;2022-11-18T00:24:25;10.25;;;2.55;;
25125;SDS011;13106;50.808;5.670;2022-11-18T00:26:52;8.38;;;2.35;;
25125;SDS011;13106;50.808;5.670;2022-11-18T00:29:18;7.20;;;1.90;;
25125;SDS011;13106;50.808;5.670;2022-11-18T00:31:45;11.23;;;2.30;;
25125;SDS011;13106;50.808;5.670;2022-11-18T00:34:11;8.18;;;2.13;;
25125;SDS011;13106;50.808;5.670;2022-11-18T00:36:38;6.60;;;1.88;;
25125;SDS011;13106;50.808;5.670;2022-11-18T00:39:05;4.25;;;1.60;;
25125;SDS011;13106;50.808;5.670;2022-11-18T00:41:31;8.73;;;2.38;;
25125;SDS011;13106;50.808;5.670;2022-11-18T00:44:15;4.95;;;1.73;;
25125;SDS011;13106;50.808;5.670;2022-11-18T00:46:41;8.02;;;1.90;;
25125;SDS011;13106;50.808;5.670;2022-11-18T00:49:08;10.05;;;2.63;;
25125;SDS011;13106;50.808;5.670;2022-11-18T00:51:34;8.52;;;1.95;;
25125;SDS011;13106;50.808;5.670;2022-11-18T00:54:00;7.28;;;2.50;;
25125;SDS011;13106;50.808;5.670;2022-11-18T00:56:26;6.45;;;2.60;;
25125;SDS011;13106;50.808;5.670;2022-11-18T00:58:52;8.48;;;2.58;;
25125;SDS011;13106;50.808;5.670;2022-11-18T01:01:18;6.95;;;2.50;;
25125;SDS011;13106;50.808;5.670;2022-11-18T01:03:45;5.10;;;2.13;;
25125;SDS011;13106;50.808;5.670;2022-11-18T01:06:11;9.27;;;2.80;;
25125;SDS011;13106;50.808;5.670;2022-11-18T01:08:37;6.22;;;2.80;;
25125;SDS011;13106;50.808;5.670;2022-11-18T01:11:03;7.55;;;2.28;;
25125;SDS011;13106;50.808;5.670;2022-11-18T01:13:48;8.73;;;2.67;;
25125;SDS011;13106;50.808;5.670;2022-11-18T01:16:17;6.82;;;1.90;;
25125;SDS011;13106;50.808;5.670;2022-11-18T01:18:43;7.60;;;3.35;;
25125;SDS011;13106;50.808;5.670;2022-11-18T01:21:09;7.85;;;3.78;;
25125;SDS011;13106;50.808;5.670;2022-11-18T01:23:35;4.88;;;1.90;;
25125;SDS011;13106;50.808;5.670;2022-11-18T01:26:04;7.53;;;2.22;;
25125;SDS011;13106;50.808;5.670;2022-11-18T01:28:31;6.25;;;2.00;;
25125;SDS011;13106;50.808;5.670;2022-11-18T01:31:07;7.32;;;1.90;;
25125;SDS011;13106;50.808;5.670;2022-11-18T01:33:33;8.43;;;2.20;;
25125;SDS011;13106;50.808;5.670;2022-11-18T01:35:59;6.07;;;2.30;;
25125;SDS011;13106;50.808;5.670;2022-11-18T01:38:26;4.95;;;1.70;;
25125;SDS011;13106;50.808;5.670;2022-11-18T01:40:52;6.90;;;2.00;;
25125;SDS011;13106;50.808;5.670;2022-11-18T01:43:19;8.45;;;2.05;;
25125;SDS011;13106;50.808;5.670;2022-11-18T01:45:47;8.38;;;1.95;;
25125;SDS011;13106;50.808;5.670;2022-11-18T01:48:23;7.32;;;1.98;;
25125;SDS011;13106;50.808;5.670;2022-11-18T01:50:53;7.35;;;2.15;;
25125;SDS011;13106;50.808;5.670;2022-11-18T01:53:25;6.25;;;2.00;;
25125;SDS011;13106;50.808;5.670;2022-11-18T01:55:52;8.32;;;1.98;;
25125;SDS011;13106;50.808;5.670;2022-11-18T01:58:20;7.85;;;3.10;;
25125;SDS011;13106;50.808;5.670;2022-11-18T02:00:47;8.98;;;4.43;;
25125;SDS011;13106;50.808;5.670;2022-11-18T02:03:13;4.43;;;2.45;;
25125;SDS011;13106;50.808;5.670;2022-11-18T02:05:39;7.85;;;2.25;;
25125;SDS011;13106;50.808;5.670;2022-11-18T02:08:06;8.13;;;2.08;;
25125;SDS011;13106;50.808;5.670;2022-11-18T02:10:32;5.25;;;2.03;;
25125;SDS011;13106;50.808;5.670;2022-11-18T02:12:58;8.63;;;2.30;;
25125;SDS011;13106;50.808;5.670;2022-11-18T02:15:29;8.25;;;3.35;;
25125;SDS011;13106;50.808;5.670;2022-11-18T02:18:21;9.07;;;2.30;;
25125;SDS011;13106;50.808;5.670;2022-11-18T02:20:48;7.07;;;2.15;;
25125;SDS011;13106;50.808;5.670;2022-11-18T02:26:05;8.07;;;1.70;;
25125;SDS011;13106;50.808;5.670;2022-11-18T02:28:51;6.18;;;1.63;;
25125;SDS011;13106;50.808;5.670;2022-11-18T02:36:52;5.38;;;2.20;;
25125;SDS011;13106;50.808;5.670;2022-11-18T02:39:25;11.38;;;1.75;;
25125;SDS011;13106;50.808;5.670;2022-11-18T02:41:55;4.90;;;1.67;;
25125;SDS011;13106;50.808;5.670;2022-11-18T02:44:22;6.47;;;1.80;;
25125;SDS011;13106;50.808;5.670;2022-11-18T02:46:50;7.80;;;2.00;;
25125;SDS011;13106;50.808;5.670;2022-11-18T02:49:37;9.35;;;2.25;;
25125;SDS011;13106;50.808;5.670;2022-11-18T02:52:04;10.93;;;2.30;;
25125;SDS011;13106;50.808;5.670;2022-11-18T02:54:31;10.68;;;2.38;;
25125;SDS011;13106;50.808;5.670;2022-11-18T02:56:58;5.25;;;2.00;;
25125;SDS011;13106;50.808;5.670;2022-11-18T02:59:26;8.57;;;1.90;;
25125;SDS011;13106;50.808;5.670;2022-11-18T03:01:53;7.10;;;1.80;;
25125;SDS011;13106;50.808;5.670;2022-11-18T03:04:19;6.88;;;1.95;;
25125;SDS011;13106;50.808;5.670;2022-11-18T03:06:49;8.02;;;1.92;;
25125;SDS011;13106;50.808;5.670;2022-11-18T03:09:25;10.65;;;2.08;;
25125;SDS011;13106;50.808;5.670;2022-11-18T03:12:02;6.60;;;2.15;;
25125;SDS011;13106;50.808;5.670;2022-11-18T03:14:35;6.65;;;1.70;;
25125;SDS011;13106;50.808;5.670;2022-11-18T03:17:12;4.70;;;2.30;;
25125;SDS011;13106;50.808;5.670;2022-11-18T03:22:30;4.63;;;1.77;;
25125;SDS011;13106;50.808;5.670;2022-11-18T03:25:03;9.63;;;2.30;;
25125;SDS011;13106;50.808;5.670;2022-11-18T03:27:31;5.38;;;1.75;;
25125;SDS011;13106;50.808;5.670;2022-11-18T03:30:06;6.55;;;2.05;;
25125;SDS011;13106;50.808;5.670;2022-11-18T03:32:35;4.63;;;2.00;;
25125;SDS011;13106;50.808;5.670;2022-11-18T03:35:02;6.63;;;2.00;;
25125;SDS011;13106;50.808;5.670;2022-11-18T03:37:30;5.70;;;1.60;;
25125;SDS011;13106;50.808;5.670;2022-11-18T03:39:58;6.95;;;2.08;;
25125;SDS011;13106;50.808;5.670;2022-11-18T03:42:30;4.45;;;1.73;;
25125;SDS011;13106;50.808;5.670;2022-11-18T03:45:04;5.50;;;1.52;;
25125;SDS011;13106;50.808;5.670;2022-11-18T03:47:33;4.57;;;1.70;;
25125;SDS011;13106;50.808;5.670;2022-11-18T03:50:05;3.67;;;1.73;;
25125;SDS011;13106;50.808;5.670;2022-11-18T03:52:33;4.50;;;1.48;;
25125;SDS011;13106;50.808;5.670;2022-11-18T03:55:01;3.60;;;1.80;;
25125;SDS011;13106;50.808;5.670;2022-11-18T03:57:33;8.77;;;2.10;;
25125;SDS011;13106;50.808;5.670;2022-11-18T04:00:05;2.53;;;1.42;;
25125;SDS011;13106;50.808;5.670;2022-11-18T04:02:31;4.95;;;2.15;;
25125;SDS011;13106;50.808;5.670;2022-11-18T04:04:58;3.33;;;1.80;;
25125;SDS011;13106;50.808;5.670;2022-11-18T04:07:32;5.75;;;2.30;;
25125;SDS011;13106;50.808;5.670;2022-11-18T04:10:07;4.10;;;2.30;;
25125;SDS011;13106;50.808;5.670;2022-11-18T04:12:43;4.20;;;2.20;;
25125;SDS011;13106;50.808;5.670;2022-11-18T04:15:10;5.07;;;2.00;;
25125;SDS011;13106;50.808;5.670;2022-11-18T04:17:37;7.38;;;2.58;;
25125;SDS011;13106;50.808;5.670;2022-11-18T04:20:05;4.97;;;2.65;;
25125;SDS011;13106;50.808;5.670;2022-11-18T04:22:31;5.60;;;2.58;;
25125;SDS011;13106;50.808;5.670;2022-11-18T04:24:57;4.95;;;2.40;;
25125;SDS011;13106;50.808;5.670;2022-11-18T04:27:23;4.32;;;2.85;;
25125;SDS011;13106;50.808;5.670;2022-11-18T04:29:49;7.95;;;2.00;;
25125;SDS011;13106;50.808;5.670;2022-11-18T04:32:15;6.88;;;2.35;;
25125;SDS011;13106;50.808;5.670;2022-11-18T04:34:41;2.90;;;1.52;;
25125;SDS011;13106;50.808;5.670;2022-11-18T04:37:07;5.78;;;1.88;;
25125;SDS011;13106;50.808;5.670;2022-11-18T04:39:33;7.30;;;2.22;;
25125;SDS011;13106;50.808;5.670;2022-11-18T04:41:59;5.43;;;1.95;;
25125;SDS011;13106;50.808;5.670;2022-11-18T04:44:26;5.32;;;1.88;;
25125;SDS011;13106;50.808;5.670;2022-11-18T04:46:54;5.78;;;2.08;;
25125;SDS011;13106;50.808;5.670;2022-11-18T04:49:20;4.45;;;2.13;;
25125;SDS011;13106;50.808;5.670;2022-11-18T04:51:47;9.15;;;6.18;;
25125;SDS011;13106;50.808;5.670;2022-11-18T04:54:13;6.85;;;2.55;;
25125;SDS011;13106;50.808;5.670;2022-11-18T04:56:39;4.00;;;2.55;;
25125;SDS011;13106;50.808;5.670;2022-11-18T04:59:05;8.98;;;2.80;;
25125;SDS011;13106;50.808;5.670;2022-11-18T05:01:31;6.55;;;2.92;;
25125;SDS011;13106;50.808;5.670;2022-11-18T05:04:01;4.97;;;2.70;;
25125;SDS011;13106;50.808;5.670;2022-11-18T05:06:27;6.43;;;3.20;;
25125;SDS011;13106;50.808;5.670;2022-11-18T05:08:54;7.15;;;2.55;;
25125;SDS011;13106;50.808;5.670;2022-11-18T05:11:20;6.57;;;2.50;;
25125;SDS011;13106;50.808;5.670;2022-11-18T05:14:04;7.32;;;3.65;;
25125;SDS011;13106;50.808;5.670;2022-11-18T05:16:30;8.10;;;3.22;;
25125;SDS011;13106;50.808;5.670;2022-11-18T05:18:56;5.07;;;3.05;;
25125;SDS011;13106;50.808;5.670;2022-11-18T05:21:22;8.85;;;3.20;;
25125;SDS011;13106;50.808;5.670;2022-11-18T05:23:48;10.68;;;3.60;;
25125;SDS011;13106;50.808;5.670;2022-11-18T05:26:14;8.98;;;3.40;;
25125;SDS011;13106;50.808;5.670;2022-11-18T05:28:40;4.82;;;2.83;;
25125;SDS011;13106;50.808;5.670;2022-11-18T05:31:07;7.20;;;3.20;;
25125;SDS011;13106;50.808;5.670;2022-11-18T05:33:33;6.22;;;3.15;;
25125;SDS011;13106;50.808;5.670;2022-11-18T05:36:06;5.47;;;3.08;;
25125;SDS011;13106;50.808;5.670;2022-11-18T05:38:33;5.80;;;3.28;;
25125;SDS011;13106;50.808;5.670;2022-11-18T05:40:59;5.78;;;3.35;;
25125;SDS011;13106;50.808;5.670;2022-11-18T05:43:25;6.03;;;3.35;;
25125;SDS011;13106;50.808;5.670;2022-11-18T05:45:51;7.40;;;3.17;;
25125;SDS011;13106;50.808;5.670;2022-11-18T05:48:17;6.78;;;3.25;;
25125;SDS011;13106;50.808;5.670;2022-11-18T05:50:48;6.85;;;3.20;;
25125;SDS011;13106;50.808;5.670;2022-11-18T05:53:14;8.45;;;3.25;;
25125;SDS011;13106;50.808;5.670;2022-11-18T05:55:46;9.75;;;3.38;;
25125;SDS011;13106;50.808;5.670;2022-11-18T05:58:14;8.65;;;4.13;;
25125;SDS011;13106;50.808;5.670;2022-11-18T06:00:40;22.85;;;9.98;;
25125;SDS011;13106;50.808;5.670;2022-11-18T06:03:08;29.02;;;14.23;;
25125;SDS011;13106;50.808;5.670;2022-11-18T06:05:37;30.00;;;15.30;;
25125;SDS011;13106;50.808;5.670;2022-11-18T06:08:03;33.80;;;15.60;;
25125;SDS011;13106;50.808;5.670;2022-11-18T06:10:30;27.20;;;14.20;;
25125;SDS011;13106;50.808;5.670;2022-11-18T06:12:59;24.98;;;15.85;;
25125;SDS011;13106;50.808;5.670;2022-11-18T06:15:26;24.65;;;11.93;;
25125;SDS011;13106;50.808;5.670;2022-11-18T06:18:08;47.38;;;24.75;;
25125;SDS011;13106;50.808;5.670;2022-11-18T06:20:36;38.95;;;18.90;;
25125;SDS011;13106;50.808;5.670;2022-11-18T06:23:03;20.40;;;10.82;;
25125;SDS011;13106;50.808;5.670;2022-11-18T06:25:29;26.67;;;13.68;;
25125;SDS011;13106;50.808;5.670;2022-11-18T06:27:55;16.65;;;9.73;;
25125;SDS011;13106;50.808;5.670;2022-11-18T06:30:22;23.70;;;12.73;;
25125;SDS011;13106;50.808;5.670;2022-11-18T06:32:48;25.98;;;15.35;;
25125;SDS011;13106;50.808;5.670;2022-11-18T06:35:14;22.25;;;12.77;;
25125;SDS011;13106;50.808;5.670;2022-11-18T06:37:40;17.83;;;9.30;;
25125;SDS011;13106;50.808;5.670;2022-11-18T06:40:07;23.95;;;11.73;;
25125;SDS011;13106;50.808;5.670;2022-11-18T06:42:33;20.13;;;11.60;;
25125;SDS011;13106;50.808;5.670;2022-11-18T06:45:17;19.83;;;12.50;;
25125;SDS011;13106;50.808;5.670;2022-11-18T06:47:43;12.88;;;6.13;;
25125;SDS011;13106;50.808;5.670;2022-11-18T06:50:09;10.43;;;6.30;;
25125;SDS011;13106;50.808;5.670;2022-11-18T06:52:36;12.88;;;7.57;;
25125;SDS011;13106;50.808;5.670;2022-11-18T06:55:02;19.75;;;13.55;;
25125;SDS011;13106;50.808;5.670;2022-11-18T06:57:31;22.83;;;13.55;;
25125;SDS011;13106;50.808;5.670;2022-11-18T06:59:57;16.17;;;9.48;;
25125;SDS011;13106;50.808;5.670;2022-11-18T07:02:23;42.45;;;24.13;;
25125;SDS011;13106;50.808;5.670;2022-11-18T07:04:49;28.95;;;16.45;;
25125;SDS011;13106;50.808;5.670;2022-11-18T07:07:15;22.73;;;15.10;;
25125;SDS011;13106;50.808;5.670;2022-11-18T07:09:41;18.67;;;11.60;;
25125;SDS011;13106;50.808;5.670;2022-11-18T07:12:07;14.00;;;9.77;;
25125;SDS011;13106;50.808;5.670;2022-11-18T07:14:33;10.82;;;6.45;;
25125;SDS011;13106;50.808;5.670;2022-11-18T07:16:59;12.57;;;7.68;;
25125;SDS011;13106;50.808;5.670;2022-11-18T07:19:25;9.70;;;4.63;;
25125;SDS011;13106;50.808;5.670;2022-11-18T07:21:51;8.00;;;3.63;;
25125;SDS011;13106;50.808;5.670;2022-11-18T07:24:17;8.15;;;5.30;;
25125;SDS011;13106;50.808;5.670;2022-11-18T07:26:43;10.00;;;3.95;;
25125;SDS011;13106;50.808;5.670;2022-11-18T07:29:09;10.75;;;4.13;;
25125;SDS011;13106;50.808;5.670;2022-11-18T07:31:36;8.75;;;2.85;;
25125;SDS011;13106;50.808;5.670;2022-11-18T07:34:03;6.53;;;3.10;;
25125;SDS011;13106;50.808;5.670;2022-11-18T07:36:29;7.68;;;2.97;;
25125;SDS011;13106;50.808;5.670;2022-11-18T07:38:59;7.90;;;3.10;;
25125;SDS011;13106;50.808;5.670;2022-11-18T07:41:26;8.95;;;3.88;;
25125;SDS011;13106;50.808;5.670;2022-11-18T07:43:53;6.97;;;3.92;;
25125;SDS011;13106;50.808;5.670;2022-11-18T07:46:30;6.90;;;4.22;;
25125;SDS011;13106;50.808;5.670;2022-11-18T07:48:57;9.85;;;3.55;;
25125;SDS011;13106;50.808;5.670;2022-11-18T07:51:24;12.18;;;3.40;;
25125;SDS011;13106;50.808;5.670;2022-11-18T07:53:50;15.45;;;3.80;;
25125;SDS011;13106;50.808;5.670;2022-11-18T07:56:16;8.63;;;3.10;;
25125;SDS011;13106;50.808;5.670;2022-11-18T07:58:43;13.18;;;3.55;;
25125;SDS011;13106;50.808;5.670;2022-11-18T08:01:10;12.50;;;2.97;;
25125;SDS011;13106;50.808;5.670;2022-11-18T08:03:36;18.85;;;13.50;;
25125;SDS011;13106;50.808;5.670;2022-11-18T08:06:03;9.05;;;3.28;;
25125;SDS011;13106;50.808;5.670;2022-11-18T08:08:29;6.30;;;2.75;;
25125;SDS011;13106;50.808;5.670;2022-11-18T08:10:56;9.02;;;2.72;;
25125;SDS011;13106;50.808;5.670;2022-11-18T08:13:22;14.32;;;4.93;;
25125;SDS011;13106;50.808;5.670;2022-11-18T08:15:48;9.70;;;3.42;;
25125;SDS011;13106;50.808;5.670;2022-11-18T08:18:14;16.20;;;3.45;;
25125;SDS011;13106;50.808;5.670;2022-11-18T08:20:40;11.82;;;3.03;;
25125;SDS011;13106;50.808;5.670;2022-11-18T08:23:06;12.35;;;11.18;;
25125;SDS011;13106;50.808;5.670;2022-11-18T08:25:32;9.23;;;5.95;;
25125;SDS011;13106;50.808;5.670;2022-11-18T08:27:58;7.32;;;4.80;;
25125;SDS011;13106;50.808;5.670;2022-11-18T08:30:24;8.25;;;2.55;;
25125;SDS011;13106;50.808;5.670;2022-11-18T08:32:50;12.77;;;2.70;;
25125;SDS011;13106;50.808;5.670;2022-11-18T08:35:16;10.85;;;2.70;;
25125;SDS011;13106;50.808;5.670;2022-11-18T08:37:42;12.80;;;11.52;;
25125;SDS011;13106;50.808;5.670;2022-11-18T08:40:08;7.07;;;2.20;;
25125;SDS011;13106;50.808;5.670;2022-11-18T08:42:35;8.15;;;2.72;;
25125;SDS011;13106;50.808;5.670;2022-11-18T08:45:02;10.68;;;2.35;;
25125;SDS011;13106;50.808;5.670;2022-11-18T08:47:29;10.45;;;2.38;;
25125;SDS011;13106;50.808;5.670;2022-11-18T08:49:55;11.50;;;2.55;;
25125;SDS011;13106;50.808;5.670;2022-11-18T08:52:21;8.23;;;2.47;;
25125;SDS011;13106;50.808;5.670;2022-11-18T08:54:47;9.45;;;2.25;;
25125;SDS011;13106;50.808;5.670;2022-11-18T08:57:13;10.40;;;9.43;;
25125;SDS011;13106;50.808;5.670;2022-11-18T08:59:39;5.10;;;2.00;;
25125;SDS011;13106;50.808;5.670;2022-11-18T09:02:05;7.82;;;2.40;;
25125;SDS011;13106;50.808;5.670;2022-11-18T09:04:31;12.75;;;3.35;;
25125;SDS011;13106;50.808;5.670;2022-11-18T09:06:57;7.65;;;2.22;;
25125;SDS011;13106;50.808;5.670;2022-11-18T09:09:23;8.95;;;2.40;;
25125;SDS011;13106;50.808;5.670;2022-11-18T09:11:49;11.18;;;6.40;;
25125;SDS011;13106;50.808;5.670;2022-11-18T09:14:15;12.93;;;7.15;;
25125;SDS011;13106;50.808;5.670;2022-11-18T09:16:42;6.85;;;2.42;;
25125;SDS011;13106;50.808;5.670;2022-11-18T09:19:08;13.73;;;2.30;;
25125;SDS011;13106;50.808;5.670;2022-11-18T09:21:36;7.18;;;2.33;;
25125;SDS011;13106;50.808;5.670;2022-11-18T09:24:02;10.35;;;2.15;;
25125;SDS011;13106;50.808;5.670;2022-11-18T09:26:29;9.23;;;2.20;;
25125;SDS011;13106;50.808;5.670;2022-11-18T09:28:55;7.88;;;2.17;;
25125;SDS011;13106;50.808;5.670;2022-11-18T09:31:21;7.68;;;3.00;;
25125;SDS011;13106;50.808;5.670;2022-11-18T09:33:47;7.22;;;1.80;;
25125;SDS011;13106;50.808;5.670;2022-11-18T09:36:17;8.55;;;2.22;;
25125;SDS011;13106;50.808;5.670;2022-11-18T09:38:43;5.60;;;2.00;;
25125;SDS011;13106;50.808;5.670;2022-11-18T09:48:59;6.90;;;2.25;;
25125;SDS011;13106;50.808;5.670;2022-11-18T09:51:39;7.05;;;2.50;;
25125;SDS011;13106;50.808;5.670;2022-11-18T09:54:28;6.45;;;2.20;;
25125;SDS011;13106;50.808;5.670;2022-11-18T09:56:53;10.45;;;2.50;;
25125;SDS011;13106;50.808;5.670;2022-11-18T09:59:20;5.63;;;2.13;;
25125;SDS011;13106;50.808;5.670;2022-11-18T10:01:47;8.57;;;2.30;;
25125;SDS011;13106;50.808;5.670;2022-11-18T10:04:15;8.95;;;2.72;;
25125;SDS011;13106;50.808;5.670;2022-11-18T10:06:41;7.93;;;2.63;;
25125;SDS011;13106;50.808;5.670;2022-11-18T10:11:45;8.35;;;2.20;;
25125;SDS011;13106;50.808;5.670;2022-11-18T10:21:57;6.63;;;2.17;;
25125;SDS011;13106;50.808;5.670;2022-11-18T10:24:26;5.43;;;1.70;;
25125;SDS011;13106;50.808;5.670;2022-11-18T10:26:56;6.38;;;2.00;;
25125;SDS011;13106;50.808;5.670;2022-11-18T10:29:22;4.03;;;2.03;;
25125;SDS011;13106;50.808;5.670;2022-11-18T10:31:53;10.43;;;2.17;;
25125;SDS011;13106;50.808;5.670;2022-11-18T10:34:19;6.70;;;1.80;;
25125;SDS011;13106;50.808;5.670;2022-11-18T10:39:27;10.57;;;2.22;;
25125;SDS011;13106;50.808;5.670;2022-11-18T10:41:55;6.15;;;2.13;;
25125;SDS011;13106;50.808;5.670;2022-11-18T10:44:27;7.30;;;1.90;;
25125;SDS011;13106;50.808;5.670;2022-11-18T10:49:19;4.65;;;2.33;;
25125;SDS011;13106;50.808;5.670;2022-11-18T10:54:30;7.40;;;2.00;;
25125;SDS011;13106;50.808;5.670;2022-11-18T10:57:03;6.40;;;1.60;;
25125;SDS011;13106;50.808;5.670;2022-11-18T11:02:00;8.13;;;2.17;;
25125;SDS011;13106;50.808;5.670;2022-11-18T11:04:28;6.72;;;2.30;;
25125;SDS011;13106;50.808;5.670;2022-11-18T11:06:55;9.45;;;2.13;;
25125;SDS011;13106;50.808;5.670;2022-11-18T11:09:27;8.88;;;2.25;;
25125;SDS011;13106;50.808;5.670;2022-11-18T11:11:58;7.22;;;2.35;;
25125;SDS011;13106;50.808;5.670;2022-11-18T11:14:26;13.30;;;2.65;;
25125;SDS011;13106;50.808;5.670;2022-11-18T11:16:57;6.75;;;1.98;;
25125;SDS011;13106;50.808;5.670;2022-11-18T11:19:25;12.25;;;2.55;;
25125;SDS011;13106;50.808;5.670;2022-11-18T11:21:53;7.43;;;2.00;;
25125;SDS011;13106;50.808;5.670;2022-11-18T11:24:21;7.93;;;2.25;;
25125;SDS011;13106;50.808;5.670;2022-11-18T11:26:51;7.53;;;2.13;;
25125;SDS011;13106;50.808;5.670;2022-11-18T11:39:49;7.32;;;2.08;;
25125;SDS011;13106;50.808;5.670;2022-11-18T11:42:21;6.95;;;2.30;;
25125;SDS011;13106;50.808;5.670;2022-11-18T11:50:27;14.40;;;2.67;;
25125;SDS011;13106;50.808;5.670;2022-11-18T11:52:59;12.23;;;2.28;;
25125;SDS011;13106;50.808;5.670;2022-11-18T11:55:44;17.83;;;2.95;;
25125;SDS011;13106;50.808;5.670;2022-11-18T12:01:03;9.07;;;2.47;;
25125;SDS011;13106;50.808;5.670;2022-11-18T12:06:06;8.88;;;2.10;;
25125;SDS011;13106;50.808;5.670;2022-11-18T12:08:32;6.93;;;1.95;;
25125;SDS011;13106;50.808;5.670;2022-11-18T12:11:12;7.05;;;1.98;;
25125;SDS011;13106;50.808;5.670;2022-11-18T12:13:43;7.82;;;2.08;;
25125;SDS011;13106;50.808;5.670;2022-11-18T12:16:35;5.97;;;1.98;;
25125;SDS011;13106;50.808;5.670;2022-11-18T12:19:06;6.63;;;2.20;;
25125;SDS011;13106;50.808;5.670;2022-11-18T12:26:55;9.98;;;2.67;;
25125;SDS011;13106;50.808;5.670;2022-11-18T12:29:22;5.30;;;1.85;;
25125;SDS011;13106;50.808;5.670;2022-11-18T12:34:37;13.43;;;2.47;;
25125;SDS011;13106;50.808;5.670;2022-11-18T12:39:47;8.38;;;2.22;;
25125;SDS011;13106;50.808;5.670;2022-11-18T12:45:59;14.07;;;2.33;;
25125;SDS011;13106;50.808;5.670;2022-11-18T12:50:55;6.88;;;1.63;;
25125;SDS011;13106;50.808;5.670;2022-11-18T12:53:41;9.88;;;1.50;;
25125;SDS011;13106;50.808;5.670;2022-11-18T12:58:46;7.60;;;2.03;;
25125;SDS011;13106;50.808;5.670;2022-11-18T13:01:12;5.00;;;1.50;;
25125;SDS011;13106;50.808;5.670;2022-11-18T13:03:39;7.53;;;1.88;;
25125;SDS011;13106;50.808;5.670;2022-11-18T13:06:06;8.60;;;2.28;;
25125;SDS011;13106;50.808;5.670;2022-11-18T13:08:37;6.80;;;2.08;;
25125;SDS011;13106;50.808;5.670;2022-11-18T13:11:08;10.93;;;2.42;;
25125;SDS011;13106;50.808;5.670;2022-11-18T13:13:54;4.93;;;1.95;;
25125;SDS011;13106;50.808;5.670;2022-11-18T13:16:38;5.38;;;1.80;;
25125;SDS011;13106;50.808;5.670;2022-11-18T13:19:24;6.22;;;1.63;;
25125;SDS011;13106;50.808;5.670;2022-11-18T13:21:57;8.57;;;2.90;;
25125;SDS011;13106;50.808;5.670;2022-11-18T13:24:45;5.80;;;1.92;;
25125;SDS011;13106;50.808;5.670;2022-11-18T13:29:43;4.88;;;1.92;;
25125;SDS011;13106;50.808;5.670;2022-11-18T13:32:24;6.03;;;1.40;;
25125;SDS011;13106;50.808;5.670;2022-11-18T13:34:52;8.02;;;3.92;;
25125;SDS011;13106;50.808;5.670;2022-11-18T13:37:20;5.28;;;2.13;;
25125;SDS011;13106;50.808;5.670;2022-11-18T13:39:47;5.85;;;1.83;;
25125;SDS011;13106;50.808;5.670;2022-11-18T13:44:43;10.18;;;2.03;;
25125;SDS011;13106;50.808;5.670;2022-11-18T13:57:44;5.97;;;1.60;;
25125;SDS011;13106;50.808;5.670;2022-11-18T14:00:18;3.15;;;1.50;;
25125;SDS011;13106;50.808;5.670;2022-11-18T14:02:45;5.15;;;1.63;;
25125;SDS011;13106;50.808;5.670;2022-11-18T14:05:16;5.13;;;1.40;;
25125;SDS011;13106;50.808;5.670;2022-11-18T14:07:51;9.43;;;1.90;;
25125;SDS011;13106;50.808;5.670;2022-11-18T14:10:27;4.40;;;1.52;;
25125;SDS011;13106;50.808;5.670;2022-11-18T14:12:57;8.15;;;1.50;;
25125;SDS011;13106;50.808;5.670;2022-11-18T14:17:56;8.95;;;1.77;;
25125;SDS011;13106;50.808;5.670;2022-11-18T14:20:24;10.40;;;4.13;;
25125;SDS011;13106;50.808;5.670;2022-11-18T14:22:52;21.42;;;13.55;;
25125;SDS011;13106;50.808;5.670;2022-11-18T14:27:49;11.75;;;1.60;;
25125;SDS011;13106;50.808;5.670;2022-11-18T14:35:35;7.30;;;1.60;;
25125;SDS011;13106;50.808;5.670;2022-11-18T14:38:08;5.15;;;1.40;;
25125;SDS011;13106;50.808;5.670;2022-11-18T14:40:35;4.85;;;1.42;;
25125;SDS011;13106;50.808;5.670;2022-11-18T14:43:02;5.18;;;1.30;;
25125;SDS011;13106;50.808;5.670;2022-11-18T14:45:28;5.38;;;1.75;;
25125;SDS011;13106;50.808;5.670;2022-11-18T14:47:54;9.82;;;1.85;;
25125;SDS011;13106;50.808;5.670;2022-11-18T14:50:20;7.13;;;1.48;;
25125;SDS011;13106;50.808;5.670;2022-11-18T14:52:46;7.95;;;1.80;;
25125;SDS011;13106;50.808;5.670;2022-11-18T14:55:12;8.45;;;1.65;;
25125;SDS011;13106;50.808;5.670;2022-11-18T14:57:38;4.35;;;1.50;;
25125;SDS011;13106;50.808;5.670;2022-11-18T15:00:05;6.32;;;1.30;;
25125;SDS011;13106;50.808;5.670;2022-11-18T15:02:31;7.00;;;1.65;;
25125;SDS011;13106;50.808;5.670;2022-11-18T15:04:57;5.45;;;1.55;;
25125;SDS011;13106;50.808;5.670;2022-11-18T15:07:23;11.63;;;2.25;;
25125;SDS011;13106;50.808;5.670;2022-11-18T15:09:49;5.85;;;1.50;;
25125;SDS011;13106;50.808;5.670;2022-11-18T15:12:15;6.05;;;1.70;;
25125;SDS011;13106;50.808;5.670;2022-11-18T15:14:41;11.52;;;1.90;;
25125;SDS011;13106;50.808;5.670;2022-11-18T15:17:09;10.38;;;1.90;;
25125;SDS011;13106;50.808;5.670;2022-11-18T15:19:36;6.82;;;1.80;;
25125;SDS011;13106;50.808;5.670;2022-11-18T15:22:04;5.57;;;1.60;;
25125;SDS011;13106;50.808;5.670;2022-11-18T15:24:30;7.38;;;1.60;;
25125;SDS011;13106;50.808;5.670;2022-11-18T15:26:56;7.53;;;1.55;;
25125;SDS011;13106;50.808;5.670;2022-11-18T15:29:23;5.75;;;1.60;;
25125;SDS011;13106;50.808;5.670;2022-11-18T15:31:49;5.90;;;1.75;;
25125;SDS011;13106;50.808;5.670;2022-11-18T15:34:16;10.48;;;2.03;;
25125;SDS011;13106;50.808;5.670;2022-11-18T15:36:42;6.75;;;2.10;;
25125;SDS011;13106;50.808;5.670;2022-11-18T15:39:09;6.80;;;2.17;;
25125;SDS011;13106;50.808;5.670;2022-11-18T15:41:35;5.80;;;2.15;;
25125;SDS011;13106;50.808;5.670;2022-11-18T15:44:02;7.97;;;2.20;;
25125;SDS011;13106;50.808;5.670;2022-11-18T15:46:28;9.82;;;2.05;;
25125;SDS011;13106;50.808;5.670;2022-11-18T15:48:55;5.07;;;1.95;;
25125;SDS011;13106;50.808;5.670;2022-11-18T15:51:21;9.80;;;2.10;;
25125;SDS011;13106;50.808;5.670;2022-11-18T15:53:47;5.50;;;1.60;;
25125;SDS011;13106;50.808;5.670;2022-11-18T16:01:18;6.20;;;1.77;;
25125;SDS011;13106;50.808;5.670;2022-11-18T16:03:44;6.13;;;2.00;;
25125;SDS011;13106;50.808;5.670;2022-11-18T16:06:10;5.82;;;2.40;;
25125;SDS011;13106;50.808;5.670;2022-11-18T16:08:36;8.90;;;2.95;;
25125;SDS011;13106;50.808;5.670;2022-11-18T16:11:02;5.03;;;1.90;;
25125;SDS011;13106;50.808;5.670;2022-11-18T16:13:46;8.95;;;2.05;;
25125;SDS011;13106;50.808;5.670;2022-11-18T16:16:19;7.70;;;3.30;;
25125;SDS011;13106;50.808;5.670;2022-11-18T16:18:45;9.48;;;2.97;;
25125;SDS011;13106;50.808;5.670;2022-11-18T16:21:11;7.80;;;2.65;;
25125;SDS011;13106;50.808;5.670;2022-11-18T16:23:37;9.82;;;2.72;;
25125;SDS011;13106;50.808;5.670;2022-11-18T16:26:03;8.27;;;2.42;;
25125;SDS011;13106;50.808;5.670;2022-11-18T16:28:29;12.95;;;2.60;;
25125;SDS011;13106;50.808;5.670;2022-11-18T16:30:56;9.77;;;3.47;;
25125;SDS011;13106;50.808;5.670;2022-11-18T16:33:40;26.10;;;11.35;;
25125;SDS011;13106;50.808;5.670;2022-11-18T16:36:06;9.13;;;3.85;;
25125;SDS011;13106;50.808;5.670;2022-11-18T16:38:32;11.05;;;2.65;;
25125;SDS011;13106;50.808;5.670;2022-11-18T16:40:58;8.82;;;3.53;;
25125;SDS011;13106;50.808;5.670;2022-11-18T16:43:24;10.23;;;3.75;;